Time;durP1;ratioP1;P1;durP2;ratioP2;P2;SDS_P1;SDS_P2;PMS_P1;PMS_P2;Temp;Humidity;BMP_temperature;BMP_pressure;BME280_temperature;BME280_humidity;BME280_pressure;Samples;Min_cycle;Max_cycle;Signal;HPM_P1;HPM_P2
2024/02/19 00:02:00;;;;;;;13.35;7.80;;;8.60;99.90;;;;;;5041631;28;20057;-93
2024/02/19 00:04:26;;;;;;;11.07;6.53;;;8.50;99.90;;;;;;5043141;28;20097;-94
2024/02/19 00:06:52;;;;;;;9.40;5.55;;;8.60;99.90;;;;;;5028105;28;20021;-93
2024/02/19 00:09:19;;;;;;;9.25;5.82;;;8.60;99.90;;;;;;5048805;28;20036;-93
2024/02/19 00:11:46;;;;;;;13.10;6.78;;;8.60;99.90;;;;;;5049040;28;20030;-93
2024/02/19 00:14:12;;;;;;;9.40;6.13;;;8.60;99.90;;;;;;5049311;28;20060;-94
2024/02/19 00:16:39;;;;;;;9.98;6.85;;;8.60;99.90;;;;;;5040946;28;20095;-93
2024/02/19 00:19:08;;;;;;;11.20;6.50;;;8.60;99.90;;;;;;5040834;28;20028;-94
2024/02/19 00:21:33;;;;;;;10.02;6.55;;;8.60;99.90;;;;;;5022209;28;20711;-93
2024/02/19 00:23:59;;;;;;;9.82;6.03;;;8.60;99.90;;;;;;5049307;28;20021;-93
2024/02/19 00:26:25;;;;;;;11.23;5.90;;;8.60;99.90;;;;;;5022774;28;20057;-93
2024/02/19 00:28:51;;;;;;;11.48;6.05;;;8.60;99.90;;;;;;5044529;28;20048;-93
2024/02/19 00:31:17;;;;;;;12.30;6.80;;;8.60;99.90;;;;;;5023182;28;20176;-94
2024/02/19 00:33:43;;;;;;;11.57;6.35;;;8.60;99.90;;;;;;5046239;28;20037;-94
2024/02/19 00:36:09;;;;;;;9.85;5.93;;;8.60;99.90;;;;;;5032491;28;20030;-94
2024/02/19 00:38:35;;;;;;;12.20;6.82;;;8.60;99.90;;;;;;5038633;28;20022;-94
2024/02/19 00:41:03;;;;;;;10.48;6.18;;;8.60;99.90;;;;;;5046647;28;20032;-93
2024/02/19 00:43:29;;;;;;;;;;;8.60;99.90;;;;;;5047200;28;20041;-93
2024/02/19 00:45:55;;;;;;;9.35;5.97;;;8.60;99.90;;;;;;5048377;28;19905;-93
2024/02/19 00:48:22;;;;;;;11.02;7.13;;;8.60;99.90;;;;;;5048838;28;20079;-94
2024/02/19 00:50:48;;;;;;;11.93;6.63;;;8.60;99.90;;;;;;5038253;28;20317;-94
2024/02/19 00:53:14;;;;;;;11.68;6.88;;;8.60;99.90;;;;;;5050004;28;20083;-94
2024/02/19 00:55:40;;;;;;;12.73;5.97;;;8.60;99.90;;;;;;5049096;28;20021;-94
2024/02/19 00:58:06;;;;;;;12.13;6.22;;;8.60;99.90;;;;;;5045920;28;20033;-94
2024/02/19 01:00:32;;;;;;;10.52;7.43;;;8.60;99.90;;;;;;5045809;28;20022;-94
2024/02/19 01:02:58;;;;;;;11.27;6.72;;;8.60;99.90;;;;;;5034404;28;20069;-94
2024/02/19 01:05:27;;;;;;;10.00;7.05;;;8.70;99.90;;;;;;5044270;28;20071;-93
2024/02/19 01:07:53;;;;;;;14.05;7.10;;;8.70;99.90;;;;;;5047739;28;20056;-93
2024/02/19 01:10:19;;;;;;;11.82;7.07;;;8.70;99.90;;;;;;5048017;28;20033;-93
2024/02/19 01:12:44;;;;;;;11.75;6.18;;;8.70;99.90;;;;;;5040117;28;20032;-94
2024/02/19 01:15:13;;;;;;;12.18;6.50;;;8.70;99.90;;;;;;5026187;28;20061;-94
2024/02/19 01:17:39;;;;;;;12.98;7.72;;;8.70;99.90;;;;;;5023850;28;20120;-94
2024/02/19 01:20:07;;;;;;;16.35;7.13;;;8.70;99.90;;;;;;5038379;28;20026;-94
2024/02/19 01:22:33;;;;;;;12.25;6.97;;;8.70;99.90;;;;;;5044053;28;20076;-94
2024/02/19 01:24:59;;;;;;;12.00;7.68;;;8.70;99.90;;;;;;5041651;28;20029;-95
2024/02/19 01:27:25;;;;;;;11.27;6.90;;;8.70;99.90;;;;;;5038161;28;20388;-93
2024/02/19 01:29:51;;;;;;;11.50;6.88;;;8.70;99.90;;;;;;5036194;28;20033;-95
2024/02/19 01:32:20;;;;;;;12.38;6.78;;;8.70;99.90;;;;;;5036496;28;20040;-93
2024/02/19 01:34:48;;;;;;;14.75;7.60;;;8.70;99.90;;;;;;5045901;28;20026;-94
2024/02/19 01:37:14;;;;;;;11.15;6.00;;;8.70;99.90;;;;;;5027495;28;20055;-94
2024/02/19 01:39:40;;;;;;;12.05;6.90;;;8.70;99.90;;;;;;5026475;28;20030;-93
2024/02/19 01:42:06;;;;;;;11.85;6.72;;;8.80;99.90;;;;;;5038180;28;20095;-94
2024/02/19 01:44:32;;;;;;;13.40;7.45;;;8.70;99.90;;;;;;5026821;28;20018;-94
2024/02/19 01:46:58;;;;;;;10.98;7.70;;;8.70;99.90;;;;;;5044206;28;20029;-95
2024/02/19 01:49:25;;;;;;;11.00;6.50;;;8.80;99.90;;;;;;5047082;28;20033;-94
2024/02/19 01:51:55;;;;;;;10.30;6.50;;;8.80;99.90;;;;;;5037557;28;20269;-94
2024/02/19 01:54:23;;;;;;;10.23;6.82;;;8.70;99.90;;;;;;5045039;28;20601;-94
2024/02/19 01:56:49;;;;;;;10.35;7.05;;;8.80;99.90;;;;;;5035997;28;20037;-95
2024/02/19 01:59:20;;;;;;;9.82;5.75;;;8.90;99.90;;;;;;5045554;28;20025;-93
2024/02/19 02:01:47;;;;;;;13.57;6.13;;;8.90;99.90;;;;;;5027752;28;20113;-93
2024/02/19 02:04:14;;;;;;;11.05;6.00;;;8.90;99.90;;;;;;5045283;28;20026;-94
2024/02/19 02:06:40;;;;;;;11.50;6.18;;;8.90;99.90;;;;;;5035566;28;20076;-94
2024/02/19 02:09:07;;;;;;;10.77;6.35;;;8.80;99.90;;;;;;5021049;28;20030;-93
2024/02/19 02:11:33;;;;;;;9.68;6.07;;;8.80;99.90;;;;;;5035197;28;20396;-94
2024/02/19 02:14:00;;;;;;;12.50;6.15;;;8.90;99.90;;;;;;5044677;28;20017;-94
2024/02/19 02:16:26;;;;;;;8.50;5.72;;;8.90;99.90;;;;;;5044124;28;20022;-94
2024/02/19 02:18:53;;;;;;;8.23;5.47;;;8.90;99.90;;;;;;5041915;28;20101;-94
2024/02/19 02:21:18;;;;;;;9.98;6.18;;;8.80;99.90;;;;;;5042879;28;20029;-94
2024/02/19 02:23:44;;;;;;;13.55;7.05;;;8.80;99.90;;;;;;5025898;28;20029;-94
2024/02/19 02:26:12;;;;;;;9.40;5.82;;;8.90;99.90;;;;;;5028504;28;20031;-94
2024/02/19 02:28:38;;;;;;;8.18;4.85;;;8.90;99.90;;;;;;5028022;28;20048;-93
2024/02/19 02:31:04;;;;;;;8.32;5.85;;;8.90;99.90;;;;;;5045086;28;20029;-94
2024/02/19 02:33:29;;;;;;;10.02;6.60;;;8.90;99.90;;;;;;5044516;28;20040;-94
2024/02/19 02:35:56;;;;;;;10.50;6.63;;;8.90;99.90;;;;;;5026971;28;20029;-94
2024/02/19 02:38:23;;;;;;;11.25;5.38;;;8.90;99.90;;;;;;5036455;28;20038;-95
2024/02/19 02:40:49;;;;;;;10.35;5.72;;;8.90;99.90;;;;;;5044816;28;20030;-95
2024/02/19 02:43:14;;;;;;;10.52;5.75;;;8.90;99.90;;;;;;5043162;28;20052;-95
2024/02/19 02:45:40;;;;;;;9.25;4.78;;;8.90;99.90;;;;;;5026632;28;20028;-93
2024/02/19 02:48:08;;;;;;;10.80;5.45;;;8.90;99.90;;;;;;5026850;28;20034;-95
2024/02/19 02:50:33;;;;;;;10.18;5.38;;;8.90;99.90;;;;;;5045037;28;20266;-95
2024/02/19 02:52:59;;;;;;;13.80;6.45;;;8.90;99.90;;;;;;5043543;28;20018;-94
2024/02/19 02:55:25;;;;;;;9.95;5.50;;;8.90;99.90;;;;;;5036194;28;20021;-95
2024/02/19 02:57:51;;;;;;;9.10;5.20;;;8.90;99.90;;;;;;5025856;28;20030;-93
2024/02/19 03:00:18;;;;;;;15.05;6.03;;;8.90;99.90;;;;;;5034929;28;20041;-94
2024/02/19 03:02:43;;;;;;;10.70;6.20;;;8.90;99.90;;;;;;5042699;28;20025;-94
2024/02/19 03:05:09;;;;;;;10.77;6.35;;;8.90;99.90;;;;;;5042965;28;20071;-93
2024/02/19 03:07:35;;;;;;;8.10;4.82;;;8.90;99.90;;;;;;5035543;28;20592;-93
2024/02/19 03:10:01;;;;;;;11.75;4.80;;;8.90;99.90;;;;;;5036594;28;20030;-93
2024/02/19 03:12:27;;;;;;;10.43;5.50;;;8.80;99.90;;;;;;5016103;28;20068;-93
2024/02/19 03:14:54;;;;;;;9.48;5.00;;;8.80;99.90;;;;;;5036968;28;20021;-93
2024/02/19 03:17:20;;;;;;;10.23;5.40;;;8.90;99.90;;;;;;5020095;28;20021;-94
2024/02/19 03:19:46;;;;;;;11.60;6.40;;;8.90;99.90;;;;;;5033159;28;20025;-94
2024/02/19 03:22:13;;;;;;;9.88;5.82;;;8.90;99.90;;;;;;5035393;28;20047;-93
2024/02/19 03:24:39;;;;;;;7.78;4.75;;;8.80;99.90;;;;;;5026662;28;20411;-94
2024/02/19 03:27:05;;;;;;;11.43;7.43;;;8.80;99.90;;;;;;5045924;28;20052;-94
2024/02/19 03:29:32;;;;;;;9.73;5.28;;;8.80;99.90;;;;;;5040627;28;20034;-93
2024/02/19 03:31:58;;;;;;;10.52;5.88;;;8.80;99.90;;;;;;5040837;28;20025;-93
2024/02/19 03:34:24;;;;;;;9.65;5.95;;;8.90;99.90;;;;;;5033697;28;20115;-93
2024/02/19 03:36:51;;;;;;;9.50;5.38;;;8.80;99.90;;;;;;5041876;28;20026;-93
2024/02/19 03:39:17;;;;;;;11.13;4.93;;;8.90;99.90;;;;;;5020084;28;20483;-95
2024/02/19 03:41:44;;;;;;;11.93;6.30;;;8.80;99.90;;;;;;5037814;28;20112;-94
2024/02/19 03:44:10;;;;;;;8.20;5.68;;;8.80;99.90;;;;;;5036009;28;20041;-94
2024/02/19 03:46:36;;;;;;;12.27;5.80;;;8.80;99.90;;;;;;5041447;28;20033;-94
2024/02/19 03:49:04;;;;;;;11.73;6.35;;;8.80;99.90;;;;;;5030025;28;20022;-94
2024/02/19 03:51:30;;;;;;;10.15;5.53;;;8.80;99.90;;;;;;5031323;28;20032;-94
2024/02/19 03:53:56;;;;;;;9.10;5.25;;;8.80;99.90;;;;;;5039515;28;20026;-93
2024/02/19 03:56:22;;;;;;;13.32;6.40;;;8.80;99.90;;;;;;5030754;28;20021;-93
2024/02/19 03:58:48;;;;;;;10.40;6.03;;;8.80;99.90;;;;;;5041495;28;20040;-94
2024/02/19 04:01:13;;;;;;;11.70;5.07;;;8.80;99.90;;;;;;5033267;28;20051;-94
2024/02/19 04:03:39;;;;;;;9.73;5.25;;;8.90;99.90;;;;;;5033658;28;20077;-95
2024/02/19 04:06:05;;;;;;;11.32;6.55;;;8.90;99.90;;;;;;5037847;28;20097;-93
2024/02/19 04:08:34;;;;;;;12.43;5.68;;;8.80;99.90;;;;;;5022335;28;20025;-95
2024/02/19 04:11:01;;;;;;;11.30;7.15;;;8.80;99.90;;;;;;5035599;28;20033;-93
2024/02/19 04:13:27;;;;;;;12.05;5.85;;;8.80;99.90;;;;;;5028747;28;20075;-93
2024/02/19 04:15:54;;;;;;;11.77;6.05;;;8.80;99.90;;;;;;5020188;28;20053;-94
2024/02/19 04:18:20;;;;;;;10.35;5.47;;;8.80;99.90;;;;;;5022303;28;20483;-95
2024/02/19 04:20:46;;;;;;;14.23;7.13;;;8.80;99.90;;;;;;5033457;28;20026;-94
2024/02/19 04:23:12;;;;;;;14.43;6.97;;;8.80;99.90;;;;;;5039618;28;20082;-94
2024/02/19 04:25:38;;;;;;;12.50;7.32;;;8.80;99.90;;;;;;5040883;28;20071;-92
2024/02/19 04:28:04;;;;;;;12.15;6.88;;;8.80;99.90;;;;;;5035229;28;20033;-93
2024/02/19 04:30:30;;;;;;;14.90;6.35;;;8.80;99.90;;;;;;5040148;28;20026;-93
2024/02/19 04:32:56;;;;;;;14.02;7.95;;;8.70;99.90;;;;;;5022620;28;20443;-93
2024/02/19 04:35:22;;;;;;;14.73;6.65;;;8.70;99.90;;;;;;5015959;28;20131;-92
2024/02/19 04:37:47;;;;;;;12.02;6.25;;;8.80;99.90;;;;;;5038100;28;20551;-90
2024/02/19 04:40:13;;;;;;;15.38;6.45;;;8.70;99.90;;;;;;5019812;28;20024;-92
2024/02/19 04:42:40;;;;;;;11.82;5.97;;;8.70;99.90;;;;;;5037010;28;20040;-94
2024/02/19 04:45:08;;;;;;;15.50;6.88;;;8.70;99.90;;;;;;5040436;28;20036;-93
2024/02/19 04:47:34;;;;;;;12.95;7.03;;;8.70;99.90;;;;;;5023503;28;20083;-93
2024/02/19 04:50:01;;;;;;;11.25;6.53;;;8.60;99.90;;;;;;5038268;28;20033;-94
2024/02/19 04:52:27;;;;;;;11.88;6.68;;;8.70;99.90;;;;;;5038924;28;20032;-94
2024/02/19 04:54:52;;;;;;;15.63;7.47;;;8.70;99.90;;;;;;5039487;28;20038;-93
2024/02/19 04:57:18;;;;;;;16.35;7.22;;;8.60;99.90;;;;;;5018426;28;20045;-93
2024/02/19 04:59:47;;;;;;;15.68;7.13;;;8.70;99.90;;;;;;5045296;28;20022;-96
2024/02/19 05:02:13;;;;;;;15.95;7.63;;;8.70;99.90;;;;;;5014202;28;20026;-93
2024/02/19 05:04:38;;;;;;;13.10;7.07;;;8.60;99.90;;;;;;5035010;28;20119;-95
2024/02/19 05:07:04;;;;;;;15.52;6.97;;;8.70;99.90;;;;;;5028936;28;20051;-93
2024/02/19 05:09:30;;;;;;;14.93;7.07;;;8.70;99.90;;;;;;5042911;28;20026;-95
2024/02/19 05:11:56;;;;;;;13.57;6.90;;;8.70;99.90;;;;;;5025298;28;20033;-94
2024/02/19 05:14:22;;;;;;;13.15;6.93;;;8.70;99.90;;;;;;5025546;28;20025;-94
2024/02/19 05:16:48;;;;;;;10.30;6.97;;;8.70;99.90;;;;;;5018707;28;20084;-94
2024/02/19 05:19:14;;;;;;;13.00;6.35;;;8.60;99.90;;;;;;5028023;28;20606;-95
2024/02/19 05:21:41;;;;;;;13.00;6.03;;;8.60;99.90;;;;;;5022890;28;20025;-94
2024/02/19 05:24:13;;;;;;;11.13;6.13;;;8.60;99.90;;;;;;5043289;28;20089;-94
2024/02/19 05:26:42;;;;;;;14.07;5.63;;;8.50;99.90;;;;;;5020005;28;20045;-94
2024/02/19 05:29:08;;;;;;;11.10;5.60;;;8.50;99.90;;;;;;5040994;28;20074;-93
2024/02/19 05:31:37;;;;;;;9.60;5.32;;;8.50;99.90;;;;;;5038316;28;20490;-93
2024/02/19 05:34:08;;;;;;;10.77;4.47;;;8.50;99.90;;;;;;5038909;28;20040;-94
2024/02/19 05:36:35;;;;;;;6.50;4.40;;;8.40;99.90;;;;;;5039272;28;20048;-93
2024/02/19 05:39:01;;;;;;;7.43;3.45;;;8.40;99.90;;;;;;5030138;28;20109;-93
2024/02/19 05:41:28;;;;;;;5.00;3.55;;;8.50;99.90;;;;;;5041125;28;20491;-92
2024/02/19 05:43:55;;;;;;;6.97;3.42;;;8.40;99.90;;;;;;5017465;28;20110;-93
2024/02/19 05:46:22;;;;;;;7.72;2.40;;;8.50;99.90;;;;;;5037797;28;20056;-93
2024/02/19 05:48:48;;;;;;;6.00;3.25;;;8.50;99.90;;;;;;5031923;28;20092;-93
2024/02/19 05:51:15;;;;;;;7.07;3.33;;;8.50;99.90;;;;;;5042790;28;20500;-94
2024/02/19 05:53:41;;;;;;;7.68;3.28;;;8.50;99.90;;;;;;5017719;28;20093;-93
2024/02/19 05:56:09;;;;;;;8.73;5.60;;;8.50;99.90;;;;;;5021303;28;20057;-92
2024/02/19 05:58:39;;;;;;;4.45;2.80;;;8.50;99.90;;;;;;5021173;28;20022;-93
2024/02/19 06:01:07;;;;;;;5.30;2.72;;;8.50;99.90;;;;;;5032974;28;20018;-95
2024/02/19 06:03:34;;;;;;;4.15;2.08;;;8.50;99.90;;;;;;5045802;28;20118;-94
2024/02/19 06:06:03;;;;;;;5.22;2.90;;;8.50;99.90;;;;;;5028918;28;20033;-94
2024/02/19 06:08:30;;;;;;;6.35;2.42;;;8.60;99.90;;;;;;5039380;28;20041;-94
2024/02/19 06:10:56;;;;;;;6.70;2.75;;;8.60;99.90;;;;;;5038563;28;20044;-94
2024/02/19 06:13:22;;;;;;;6.40;3.72;;;8.60;99.90;;;;;;5038789;28;20017;-93
2024/02/19 06:15:49;;;;;;;6.45;3.90;;;8.50;99.90;;;;;;5045890;28;20057;-95
2024/02/19 06:18:15;;;;;;;5.47;2.72;;;8.50;99.90;;;;;;5031071;28;20029;-93
2024/02/19 06:20:41;;;;;;;5.75;2.53;;;8.50;99.90;;;;;;5033268;28;20036;-94
2024/02/19 06:23:07;;;;;;;6.97;2.47;;;8.40;99.90;;;;;;5044171;28;20021;-93
2024/02/19 06:25:33;;;;;;;6.28;2.78;;;8.40;99.90;;;;;;5042294;28;20040;-94
2024/02/19 06:27:59;;;;;;;4.32;2.55;;;8.30;99.90;;;;;;5045832;28;20025;-94
2024/02/19 06:30:26;;;;;;;6.05;3.22;;;8.30;99.90;;;;;;5045814;28;20034;-94
2024/02/19 06:32:52;;;;;;;6.55;2.10;;;8.30;99.90;;;;;;5039623;28;20041;-93
2024/02/19 06:35:18;;;;;;;5.68;1.98;;;8.30;99.90;;;;;;5052589;28;20013;-95
2024/02/19 06:37:45;;;;;;;7.13;2.95;;;8.30;99.90;;;;;;5050094;22;20029;-95
2024/02/19 06:40:13;;;;;;;4.55;1.77;;;8.30;99.90;;;;;;5033527;28;20026;-95
2024/02/19 06:42:42;;;;;;;6.22;2.13;;;8.30;99.90;;;;;;5034960;28;20010;-95
2024/02/19 06:45:10;;;;;;;4.85;2.20;;;8.30;99.90;;;;;;5074470;22;20049;-93
2024/02/19 06:47:36;;;;;;;5.32;2.25;;;8.30;99.90;;;;;;5054724;28;20036;-95
2024/02/19 06:50:05;;;;;;;4.03;2.38;;;8.40;99.90;;;;;;5056226;28;20016;-91
2024/02/19 06:52:31;;;;;;;6.82;2.95;;;8.40;99.90;;;;;;5053712;28;20021;-94
2024/02/19 06:54:56;;;;;;;5.13;2.05;;;8.40;99.90;;;;;;5055434;28;20055;-93
2024/02/19 06:57:22;;;;;;;7.15;2.70;;;8.40;99.90;;;;;;5070875;28;20025;-93
2024/02/19 06:59:48;;;;;;;6.68;3.00;;;8.30;99.90;;;;;;5059677;28;20018;-92
2024/02/19 07:02:16;;;;;;;4.90;2.63;;;8.40;99.90;;;;;;5049789;28;20041;-94
2024/02/19 07:04:45;;;;;;;4.97;2.75;;;8.30;99.90;;;;;;5039734;28;20037;-94
2024/02/19 07:07:11;;;;;;;5.47;2.60;;;8.40;99.90;;;;;;5048180;28;20025;-92
2024/02/19 07:09:41;;;;;;;3.53;2.20;;;8.40;99.90;;;;;;5070445;28;20013;-93
2024/02/19 07:12:08;;;;;;;4.38;1.90;;;8.30;99.90;;;;;;5052388;28;20021;-92
2024/02/19 07:14:34;;;;;;;6.75;2.15;;;8.40;99.90;;;;;;5053159;28;20081;-92
2024/02/19 07:17:00;;;;;;;5.82;4.65;;;8.40;99.90;;;;;;5052000;28;20017;-93
2024/02/19 07:19:26;;;;;;;11.63;4.13;;;8.40;99.90;;;;;;5050662;28;20036;-92
2024/02/19 07:21:52;;;;;;;8.45;3.10;;;8.40;99.90;;;;;;5067383;28;20029;-94
2024/02/19 07:25:00;;;;;;;5.70;3.20;;;8.40;99.90;;;;;;5043076;28;20017;-93
2024/02/19 07:27:30;;;;;;;3.35;2.28;;;8.40;99.90;;;;;;5022556;28;20037;-93
2024/02/19 07:30:03;;;;;;;6.28;3.40;;;8.50;99.90;;;;;;5048556;28;20069;-92
2024/02/19 07:32:29;;;;;;;7.00;2.92;;;8.40;99.90;;;;;;5031057;28;20044;-93
2024/02/19 07:34:55;;;;;;;8.80;3.10;;;8.40;99.90;;;;;;5030934;28;20049;-92
2024/02/19 07:37:22;;;;;;;6.18;3.70;;;8.50;99.90;;;;;;5040476;28;20033;-92
2024/02/19 07:39:50;;;;;;;9.35;4.45;;;8.50;99.90;;;;;;5033278;28;20053;-92
2024/02/19 07:42:15;;;;;;;7.55;3.40;;;8.50;99.90;;;;;;5033321;28;20057;-93
2024/02/19 07:44:44;;;;;;;4.82;2.75;;;8.50;99.90;;;;;;5044328;28;20048;-92
2024/02/19 07:47:10;;;;;;;8.13;3.92;;;8.50;99.90;;;;;;5049519;28;20029;-92
2024/02/19 07:49:36;;;;;;;7.35;3.33;;;8.50;99.90;;;;;;5048762;28;20033;-94
2024/02/19 07:52:11;;;;;;;4.35;3.03;;;8.60;99.90;;;;;;5048789;28;20037;-91
2024/02/19 07:54:39;;;;;;;4.38;2.67;;;8.60;99.90;;;;;;5049091;28;20022;-92
2024/02/19 07:57:08;;;;;;;9.30;2.85;;;8.60;99.90;;;;;;5029645;28;20021;-93
2024/02/19 07:59:36;;;;;;;4.65;2.47;;;8.60;99.90;;;;;;5030845;28;20071;-91
2024/02/19 08:02:02;;;;;;;6.95;2.42;;;8.70;99.90;;;;;;5047317;28;20025;-92
2024/02/19 08:04:29;;;;;;;7.63;2.92;;;8.70;99.90;;;;;;5041780;28;20027;-92
2024/02/19 08:06:57;;;;;;;5.18;2.60;;;8.60;99.90;;;;;;5029037;28;20469;-93
2024/02/19 08:09:24;;;;;;;7.95;3.30;;;8.70;99.90;;;;;;5047005;28;20106;-92
2024/02/19 08:11:51;;;;;;;5.18;2.25;;;8.70;99.90;;;;;;5028453;28;20033;-92
2024/02/19 08:14:18;;;;;;;4.70;3.22;;;8.70;99.90;;;;;;5028573;28;20022;-92
2024/02/19 08:16:50;;;;;;;10.68;2.83;;;8.80;99.90;;;;;;5027526;28;20022;-92
2024/02/19 08:19:22;;;;;;;7.05;2.20;;;8.90;99.90;;;;;;5033059;28;20021;-91
2024/02/19 08:21:49;;;;;;;5.97;2.55;;;8.90;99.90;;;;;;5052715;28;20092;-92
2024/02/19 08:24:19;;;;;;;4.30;3.28;;;8.90;99.90;;;;;;5037450;28;20029;-93
2024/02/19 08:26:50;;;;;;;5.00;3.17;;;9.00;99.90;;;;;;5066559;28;20500;-92
2024/02/19 08:29:16;;;;;;;6.13;3.13;;;9.00;99.90;;;;;;5069106;28;20017;-90
2024/02/19 08:31:42;;;;;;;6.75;2.00;;;9.00;99.90;;;;;;5050770;28;20021;-91
2024/02/19 08:34:11;;;;;;;5.68;2.42;;;9.00;99.90;;;;;;5046210;28;20032;-92
2024/02/19 08:36:37;;;;;;;6.55;3.22;;;9.10;99.90;;;;;;5054689;28;20033;-92
2024/02/19 08:39:09;;;;;;;8.68;2.35;;;9.10;99.90;;;;;;5050018;28;20111;-91
2024/02/19 08:41:37;;;;;;;4.53;3.20;;;9.00;99.90;;;;;;5049971;28;20088;-91
2024/02/19 08:44:04;;;;;;;5.13;2.22;;;9.10;99.90;;;;;;5053563;28;20040;-91
2024/02/19 08:46:31;;;;;;;5.82;2.45;;;9.10;99.90;;;;;;5051484;28;20020;-92
2024/02/19 08:48:57;;;;;;;6.68;2.05;;;9.10;99.90;;;;;;5045269;28;20021;-91
2024/02/19 08:51:31;;;;;;;4.32;2.33;;;9.10;99.90;;;;;;5070608;28;20017;-92
2024/02/19 08:53:57;;;;;;;12.02;4.45;;;9.20;99.90;;;;;;5051105;28;20030;-90
2024/02/19 08:56:23;;;;;;;8.18;2.63;;;9.20;99.90;;;;;;5034577;28;20026;-91
2024/02/19 08:58:49;;;;;;;5.35;2.78;;;9.20;99.90;;;;;;5031584;28;20462;-92
2024/02/19 09:01:18;;;;;;;4.22;2.70;;;9.30;99.90;;;;;;5049600;28;20391;-92
2024/02/19 09:03:44;;;;;;;6.68;2.47;;;9.20;99.90;;;;;;5035484;28;20060;-92
2024/02/19 09:06:10;;;;;;;3.40;1.83;;;9.30;99.90;;;;;;5037912;28;20028;-93
2024/02/19 09:08:47;;;;;;;4.20;2.72;;;9.20;99.90;;;;;;5031698;28;20026;-92
2024/02/19 09:11:16;;;;;;;7.65;1.77;;;9.30;99.90;;;;;;5052709;28;20124;-92
2024/02/19 09:13:43;;;;;;;5.68;2.55;;;9.30;99.90;;;;;;5050540;28;20033;-91
2024/02/19 09:16:11;;;;;;;4.82;2.33;;;9.30;99.90;;;;;;5050798;28;20395;-92
2024/02/19 09:18:45;;;;;;;7.03;2.38;;;9.30;99.90;;;;;;5049513;28;20085;-93
2024/02/19 09:21:15;;;;;;;5.28;2.45;;;9.30;99.90;;;;;;5035531;28;20048;-92
2024/02/19 09:23:54;;;;;;;5.88;3.45;;;9.30;99.90;;;;;;5024756;28;20132;-89
2024/02/19 09:26:46;;;;;;;4.60;1.98;;;9.30;99.90;;;;;;5059431;28;20534;-93
2024/02/19 09:29:20;;;;;;;8.27;2.80;;;9.40;99.90;;;;;;5047497;28;20029;-91
2024/02/19 09:31:49;;;;;;;6.63;2.03;;;9.40;99.90;;;;;;5050938;28;20052;-93
2024/02/19 09:34:49;;;;;;;5.78;2.13;;;9.40;99.90;;;;;;5052647;28;20025;-92
2024/02/19 09:37:24;;;;;;;9.90;2.22;;;9.30;99.90;;;;;;5048875;28;20064;-92
2024/02/19 09:40:19;;;;;;;5.05;2.42;;;9.30;99.90;;;;;;5052354;28;20032;-90
2024/02/19 09:42:47;;;;;;;6.40;1.80;;;9.30;99.90;;;;;;5051360;28;20059;-91
2024/02/19 09:45:25;;;;;;;3.90;2.15;;;9.30;99.90;;;;;;5034885;28;20044;-92
2024/02/19 09:48:02;;;;;;;8.95;2.42;;;9.30;99.90;;;;;;5065110;28;20037;-91
2024/02/19 09:50:48;;;;;;;4.55;2.33;;;9.40;99.90;;;;;;5057703;28;20032;-92
2024/02/19 09:53:33;;;;;;;4.90;1.73;;;9.40;99.60;;;;;;5069477;28;20024;-92
2024/02/19 09:56:01;;;;;;;4.22;1.73;;;9.40;99.90;;;;;;5059223;28;20025;-90
2024/02/19 09:58:33;;;;;;;6.88;3.05;;;9.40;98.90;;;;;;5049214;28;20032;-91
2024/02/19 10:01:13;;;;;;;5.05;2.50;;;9.50;99.20;;;;;;5061093;28;20025;-93
2024/02/19 10:03:39;;;;;;;7.78;2.20;;;9.50;98.20;;;;;;5032625;28;20036;-91
2024/02/19 10:06:07;;;;;;;5.45;2.45;;;9.50;99.90;;;;;;5046796;28;20392;-93
2024/02/19 10:08:33;;;;;;;;;;;9.60;98.70;;;;;;5049273;28;20041;-90
2024/02/19 10:11:10;;;;;;;3.47;2.35;;;9.70;99.30;;;;;;5048906;28;19909;-92
2024/02/19 10:13:59;;;;;;;10.98;2.33;;;9.70;96.10;;;;;;5061511;28;20551;-90
2024/02/19 10:16:32;;;;;;;6.90;1.63;;;9.80;97.40;;;;;;5063569;28;20056;-91
2024/02/19 10:19:12;;;;;;;5.00;1.75;;;9.80;97.10;;;;;;5040953;28;20041;-92
2024/02/19 10:21:38;;;;;;;6.13;1.60;;;9.80;96.10;;;;;;5043707;28;20029;-94
2024/02/19 10:24:09;;;;;;;11.35;3.10;;;9.90;98.20;;;;;;5070523;28;20033;-93
2024/02/19 10:26:38;;;;;;;11.68;2.55;;;9.90;97.30;;;;;;5043826;28;20061;-92
2024/02/19 10:29:08;;;;;;;4.50;1.92;;;9.90;97.60;;;;;;5034660;28;20025;-92
2024/02/19 10:31:43;;;;;;;7.75;1.83;;;9.90;98.50;;;;;;5043738;28;20132;-90
2024/02/19 10:34:10;;;;;;;10.35;2.83;;;9.80;99.40;;;;;;5033570;28;20037;-92
2024/02/19 10:36:39;;;;;;;6.55;2.92;;;9.90;99.00;;;;;;5066418;28;20069;-93
2024/02/19 10:39:08;;;;;;;8.98;3.13;;;9.90;99.90;;;;;;5050982;28;20067;-92
2024/02/19 10:41:38;;;;;;;5.15;2.28;;;10.00;99.90;;;;;;5049116;28;20029;-92
2024/02/19 10:44:11;;;;;;;6.22;2.88;;;10.10;99.90;;;;;;5066149;28;20385;-92
2024/02/19 10:46:39;;;;;;;6.00;3.10;;;10.10;99.90;;;;;;5060274;28;20013;-91
2024/02/19 10:49:09;;;;;;;5.68;3.25;;;10.20;99.90;;;;;;5051330;28;20045;-92
2024/02/19 10:51:39;;;;;;;6.88;2.33;;;10.10;99.90;;;;;;5031695;28;20111;-92
2024/02/19 10:54:08;;;;;;;7.78;2.88;;;10.20;99.90;;;;;;5022292;28;20026;-90
2024/02/19 10:56:44;;;;;;;7.75;3.80;;;10.30;99.90;;;;;;5041286;28;20120;-89
2024/02/19 10:59:13;;;;;;;8.20;2.83;;;10.40;99.90;;;;;;5023533;28;20575;-88
2024/02/19 11:01:50;;;;;;;6.32;4.03;;;10.40;99.90;;;;;;5050054;28;20026;-90
2024/02/19 11:04:27;;;;;;;8.23;3.20;;;10.30;99.50;;;;;;5041254;28;20049;-90
2024/02/19 11:07:03;;;;;;;8.23;2.72;;;10.30;99.90;;;;;;5021351;28;20029;-87
2024/02/19 11:09:34;;;;;;;6.75;3.42;;;10.40;99.90;;;;;;5041159;28;20523;-89
2024/02/19 11:12:02;;;;;;;6.38;2.70;;;10.40;99.90;;;;;;5052151;28;20074;-90
2024/02/19 11:14:33;;;;;;;6.40;2.67;;;10.40;99.90;;;;;;5059950;28;20028;-93
2024/02/19 11:17:01;;;;;;;9.88;3.40;;;10.50;99.30;;;;;;5058174;28;20037;-92
2024/02/19 11:19:37;;;;;;;6.05;2.28;;;10.50;96.90;;;;;;5048750;28;20021;-90
2024/02/19 11:22:06;;;;;;;9.40;3.38;;;10.70;99.90;;;;;;5055523;28;20052;-91
2024/02/19 11:24:33;;;;;;;7.60;3.22;;;10.90;99.40;;;;;;5059353;28;20048;-90
2024/02/19 11:27:07;;;;;;;7.13;4.47;;;10.90;95.30;;;;;;5053987;28;20041;-91
2024/02/19 11:29:33;;;;;;;;;;;11.00;95.20;;;;;;5037383;28;20032;-90
2024/02/19 11:32:05;;;;;;;6.80;3.00;;;11.00;93.00;;;;;;5051712;28;19942;-91
2024/02/19 11:34:32;;;;;;;6.18;2.88;;;11.00;93.70;;;;;;5040108;28;20407;-91
2024/02/19 11:37:06;;;;;;;9.68;2.95;;;11.10;93.00;;;;;;5039880;28;20025;-90
2024/02/19 11:39:33;;;;;;;5.55;3.33;;;11.00;93.80;;;;;;5040228;28;20500;-92
2024/02/19 11:42:00;;;;;;;9.77;3.05;;;11.00;94.80;;;;;;5054137;28;20032;-89
2024/02/19 11:44:28;;;;;;;8.05;3.88;;;11.00;96.90;;;;;;5054593;28;20114;-90
2024/02/19 11:46:54;;;;;;;8.57;3.35;;;11.10;95.50;;;;;;5058458;28;20021;-92
2024/02/19 11:49:22;;;;;;;10.98;3.30;;;11.10;94.90;;;;;;5040758;28;20520;-92
2024/02/19 11:51:48;;;;;;;8.27;3.47;;;11.30;94.70;;;;;;5039941;28;20033;-92
2024/02/19 11:54:15;;;;;;;13.35;4.75;;;11.30;94.40;;;;;;5039737;28;20056;-91
2024/02/19 11:56:49;;;;;;;8.52;3.63;;;11.30;90.30;;;;;;5033466;28;20025;-92
2024/02/19 11:59:15;;;;;;;10.23;4.30;;;11.40;90.50;;;;;;5050829;28;20029;-92
2024/02/19 12:01:43;;;;;;;7.72;3.10;;;11.50;93.20;;;;;;5051473;28;20036;-90
2024/02/19 12:04:09;;;;;;;12.43;3.53;;;11.50;89.70;;;;;;5052183;28;20096;-91
2024/02/19 12:06:36;;;;;;;11.55;4.80;;;11.50;89.50;;;;;;5058514;28;20060;-91
2024/02/19 12:09:03;;;;;;;9.30;3.60;;;11.40;91.20;;;;;;5051407;28;20025;-93
2024/02/19 12:11:29;;;;;;;8.32;3.92;;;11.30;90.60;;;;;;5033529;28;20025;-94
2024/02/19 12:13:55;;;;;;;10.65;3.60;;;11.20;93.30;;;;;;5060306;28;20388;-90
2024/02/19 12:16:25;;;;;;;7.35;3.33;;;11.20;93.50;;;;;;5046413;28;20036;-92
2024/02/19 12:18:51;;;;;;;9.23;4.25;;;11.10;93.50;;;;;;5050309;28;20032;-93
2024/02/19 12:21:17;;;;;;;5.43;3.38;;;11.10;94.00;;;;;;5045367;28;20543;-92
2024/02/19 12:23:43;;;;;;;10.68;3.58;;;11.00;94.30;;;;;;5044219;28;20025;-90
2024/02/19 12:26:10;;;;;;;9.48;5.38;;;11.00;96.40;;;;;;5034319;28;20026;-90
2024/02/19 12:28:36;;;;;;;8.57;3.67;;;11.10;95.20;;;;;;5039475;28;20021;-92
2024/02/19 12:31:02;;;;;;;11.35;3.60;;;11.20;94.90;;;;;;5044683;28;20078;-91
2024/02/19 12:33:28;;;;;;;8.10;2.92;;;11.30;93.50;;;;;;5053021;28;20037;-91
2024/02/19 12:35:53;;;;;;;8.27;2.80;;;11.40;92.70;;;;;;5056427;28;20440;-91
2024/02/19 12:38:19;;;;;;;10.23;2.90;;;11.40;92.20;;;;;;5058475;28;20037;-93
2024/02/19 12:40:45;;;;;;;8.88;3.13;;;11.30;92.10;;;;;;5050219;28;20025;-92
2024/02/19 12:43:11;;;;;;;8.02;2.83;;;11.30;91.80;;;;;;5056122;28;20048;-90
2024/02/19 12:45:37;;;;;;;8.95;2.90;;;11.40;91.60;;;;;;5049432;28;20403;-91
2024/02/19 12:48:03;;;;;;;7.35;3.30;;;11.40;91.10;;;;;;5036584;28;20052;-91
2024/02/19 12:50:29;;;;;;;8.20;3.22;;;11.60;88.30;;;;;;5052308;28;20067;-95
2024/02/19 12:52:56;;;;;;;6.10;2.80;;;11.90;87.30;;;;;;5052750;28;20040;-90
2024/02/19 12:55:21;;;;;;;10.93;3.05;;;12.00;84.20;;;;;;5050054;28;20025;-90
2024/02/19 12:57:47;;;;;;;10.07;3.10;;;11.90;85.10;;;;;;5049799;28;20036;-92